sensor_id;sensor_type;location;lat;lon;timestamp;P1;durP1;ratioP1;P2;durP2;ratioP2
29688;SDS011;16600;47.444;8.334;2023-09-18T00:00:54;7.97;;;4.10;;
29688;SDS011;16600;47.444;8.334;2023-09-18T00:03:22;6.43;;;3.90;;
29688;SDS011;16600;47.444;8.334;2023-09-18T00:05:50;11.57;;;3.50;;
29688;SDS011;16600;47.444;8.334;2023-09-18T00:08:17;3.67;;;2.78;;
29688;SDS011;16600;47.444;8.334;2023-09-18T00:10:47;4.80;;;2.72;;
29688;SDS011;16600;47.444;8.334;2023-09-18T00:13:14;5.97;;;2.92;;
29688;SDS011;16600;47.444;8.334;2023-09-18T00:15:41;7.97;;;3.70;;
29688;SDS011;16600;47.444;8.334;2023-09-18T00:18:07;7.85;;;3.78;;
29688;SDS011;16600;47.444;8.334;2023-09-18T00:20:33;9.85;;;3.90;;
29688;SDS011;16600;47.444;8.334;2023-09-18T00:22:58;4.97;;;3.85;;
29688;SDS011;16600;47.444;8.334;2023-09-18T00:25:24;13.07;;;4.35;;
29688;SDS011;16600;47.444;8.334;2023-09-18T00:27:49;4.55;;;3.63;;
29688;SDS011;16600;47.444;8.334;2023-09-18T00:30:17;4.90;;;2.92;;
29688;SDS011;16600;47.444;8.334;2023-09-18T00:32:42;6.13;;;4.18;;
29688;SDS011;16600;47.444;8.334;2023-09-18T00:35:08;3.90;;;3.03;;
29688;SDS011;16600;47.444;8.334;2023-09-18T00:37:33;6.28;;;2.60;;
29688;SDS011;16600;47.444;8.334;2023-09-18T00:39:59;7.50;;;4.10;;
29688;SDS011;16600;47.444;8.334;2023-09-18T00:42:30;4.22;;;3.13;;
29688;SDS011;16600;47.444;8.334;2023-09-18T00:44:55;5.88;;;3.63;;
29688;SDS011;16600;47.444;8.334;2023-09-18T00:47:22;6.70;;;3.85;;
29688;SDS011;16600;47.444;8.334;2023-09-18T00:49:48;7.05;;;3.90;;
29688;SDS011;16600;47.444;8.334;2023-09-18T00:52:14;5.55;;;2.60;;
29688;SDS011;16600;47.444;8.334;2023-09-18T00:54:40;7.03;;;3.38;;
29688;SDS011;16600;47.444;8.334;2023-09-18T00:57:06;7.93;;;3.53;;
29688;SDS011;16600;47.444;8.334;2023-09-18T00:59:33;4.35;;;3.70;;
29688;SDS011;16600;47.444;8.334;2023-09-18T01:01:59;7.10;;;3.80;;
29688;SDS011;16600;47.444;8.334;2023-09-18T01:04:25;5.78;;;3.83;;
29688;SDS011;16600;47.444;8.334;2023-09-18T01:06:51;3.58;;;2.97;;
29688;SDS011;16600;47.444;8.334;2023-09-18T01:09:18;3.30;;;2.65;;
29688;SDS011;16600;47.444;8.334;2023-09-18T01:16:55;5.55;;;3.75;;
29688;SDS011;16600;47.444;8.334;2023-09-18T01:19:43;4.03;;;3.20;;
29688;SDS011;16600;47.444;8.334;2023-09-18T01:22:11;5.38;;;3.58;;
29688;SDS011;16600;47.444;8.334;2023-09-18T01:24:37;2.70;;;2.50;;
29688;SDS011;16600;47.444;8.334;2023-09-18T01:27:04;4.32;;;2.85;;
29688;SDS011;16600;47.444;8.334;2023-09-18T01:29:30;4.50;;;2.78;;
29688;SDS011;16600;47.444;8.334;2023-09-18T01:31:55;4.18;;;3.20;;
29688;SDS011;16600;47.444;8.334;2023-09-18T01:34:21;5.63;;;3.55;;
29688;SDS011;16600;47.444;8.334;2023-09-18T01:36:50;5.40;;;3.30;;
29688;SDS011;16600;47.444;8.334;2023-09-18T01:39:16;8.23;;;3.83;;
29688;SDS011;16600;47.444;8.334;2023-09-18T01:41:42;4.90;;;2.88;;
29688;SDS011;16600;47.444;8.334;2023-09-18T01:44:08;3.92;;;2.72;;
29688;SDS011;16600;47.444;8.334;2023-09-18T01:46:34;6.80;;;3.22;;
29688;SDS011;16600;47.444;8.334;2023-09-18T01:49:02;6.60;;;3.42;;
29688;SDS011;16600;47.444;8.334;2023-09-18T01:51:29;6.25;;;3.40;;
29688;SDS011;16600;47.444;8.334;2023-09-18T01:53:54;3.55;;;3.00;;
29688;SDS011;16600;47.444;8.334;2023-09-18T01:56:20;3.88;;;2.38;;
29688;SDS011;16600;47.444;8.334;2023-09-18T01:58:46;4.90;;;3.75;;
29688;SDS011;16600;47.444;8.334;2023-09-18T02:01:11;7.78;;;3.58;;
29688;SDS011;16600;47.444;8.334;2023-09-18T02:03:37;6.07;;;3.50;;
29688;SDS011;16600;47.444;8.334;2023-09-18T02:06:09;6.28;;;3.83;;
29688;SDS011;16600;47.444;8.334;2023-09-18T02:08:34;12.02;;;3.72;;
29688;SDS011;16600;47.444;8.334;2023-09-18T02:11:00;6.20;;;3.33;;
29688;SDS011;16600;47.444;8.334;2023-09-18T02:13:25;3.90;;;3.42;;
29688;SDS011;16600;47.444;8.334;2023-09-18T02:15:51;8.40;;;3.85;;
29688;SDS011;16600;47.444;8.334;2023-09-18T02:18:17;10.85;;;4.53;;
29688;SDS011;16600;47.444;8.334;2023-09-18T02:20:42;6.65;;;3.85;;
29688;SDS011;16600;47.444;8.334;2023-09-18T02:23:12;2.55;;;1.83;;
29688;SDS011;16600;47.444;8.334;2023-09-18T02:25:38;5.88;;;2.47;;
29688;SDS011;16600;47.444;8.334;2023-09-18T02:28:05;3.20;;;1.90;;
29688;SDS011;16600;47.444;8.334;2023-09-18T02:30:31;3.15;;;2.50;;
29688;SDS011;16600;47.444;8.334;2023-09-18T02:32:57;2.13;;;1.77;;
29688;SDS011;16600;47.444;8.334;2023-09-18T02:35:22;4.20;;;1.95;;
29688;SDS011;16600;47.444;8.334;2023-09-18T02:37:48;3.35;;;1.63;;
29688;SDS011;16600;47.444;8.334;2023-09-18T02:40:13;2.60;;;1.95;;
29688;SDS011;16600;47.444;8.334;2023-09-18T02:42:39;2.03;;;1.70;;
29688;SDS011;16600;47.444;8.334;2023-09-18T02:45:04;4.03;;;2.17;;
29688;SDS011;16600;47.444;8.334;2023-09-18T02:47:30;7.50;;;2.08;;
29688;SDS011;16600;47.444;8.334;2023-09-18T02:49:55;3.33;;;2.45;;
29688;SDS011;16600;47.444;8.334;2023-09-18T02:52:21;2.78;;;1.80;;
29688;SDS011;16600;47.444;8.334;2023-09-18T02:54:46;4.30;;;2.47;;
29688;SDS011;16600;47.444;8.334;2023-09-18T02:57:12;3.70;;;2.40;;
29688;SDS011;16600;47.444;8.334;2023-09-18T02:59:39;4.32;;;2.00;;
29688;SDS011;16600;47.444;8.334;2023-09-18T03:02:05;6.00;;;2.83;;
29688;SDS011;16600;47.444;8.334;2023-09-18T03:04:31;4.70;;;2.35;;
29688;SDS011;16600;47.444;8.334;2023-09-18T03:06:57;7.57;;;2.78;;
29688;SDS011;16600;47.444;8.334;2023-09-18T03:09:23;10.30;;;3.17;;
29688;SDS011;16600;47.444;8.334;2023-09-18T03:11:49;4.78;;;2.58;;
29688;SDS011;16600;47.444;8.334;2023-09-18T03:14:14;5.22;;;3.05;;
29688;SDS011;16600;47.444;8.334;2023-09-18T03:16:40;6.20;;;2.78;;
29688;SDS011;16600;47.444;8.334;2023-09-18T03:19:05;7.28;;;3.03;;
29688;SDS011;16600;47.444;8.334;2023-09-18T03:21:32;7.18;;;3.10;;
29688;SDS011;16600;47.444;8.334;2023-09-18T03:23:59;7.68;;;3.13;;
29688;SDS011;16600;47.444;8.334;2023-09-18T03:26:24;5.45;;;2.80;;
29688;SDS011;16600;47.444;8.334;2023-09-18T03:28:50;11.45;;;3.13;;
29688;SDS011;16600;47.444;8.334;2023-09-18T03:31:16;10.50;;;3.40;;
29688;SDS011;16600;47.444;8.334;2023-09-18T03:33:42;5.28;;;3.10;;
29688;SDS011;16600;47.444;8.334;2023-09-18T03:36:08;5.95;;;3.13;;
29688;SDS011;16600;47.444;8.334;2023-09-18T03:38:36;6.45;;;2.63;;
29688;SDS011;16600;47.444;8.334;2023-09-18T03:41:02;7.22;;;2.47;;
29688;SDS011;16600;47.444;8.334;2023-09-18T03:43:27;5.55;;;2.20;;
29688;SDS011;16600;47.444;8.334;2023-09-18T03:45:53;4.38;;;2.22;;
29688;SDS011;16600;47.444;8.334;2023-09-18T03:48:20;6.50;;;1.90;;
29688;SDS011;16600;47.444;8.334;2023-09-18T03:50:49;24.02;;;2.70;;
29688;SDS011;16600;47.444;8.334;2023-09-18T03:53:15;7.88;;;2.33;;
29688;SDS011;16600;47.444;8.334;2023-09-18T03:55:40;6.45;;;2.30;;
29688;SDS011;16600;47.444;8.334;2023-09-18T03:58:06;6.82;;;2.15;;
29688;SDS011;16600;47.444;8.334;2023-09-18T04:03:02;3.28;;;2.08;;
29688;SDS011;16600;47.444;8.334;2023-09-18T04:05:27;7.28;;;2.60;;
29688;SDS011;16600;47.444;8.334;2023-09-18T04:07:55;11.15;;;4.00;;
29688;SDS011;16600;47.444;8.334;2023-09-18T04:10:20;25.10;;;3.42;;
29688;SDS011;16600;47.444;8.334;2023-09-18T04:12:49;7.75;;;4.63;;
29688;SDS011;16600;47.444;8.334;2023-09-18T04:15:15;12.30;;;5.45;;
29688;SDS011;16600;47.444;8.334;2023-09-18T04:17:42;3.10;;;1.77;;
29688;SDS011;16600;47.444;8.334;2023-09-18T04:20:08;7.30;;;3.25;;
29688;SDS011;16600;47.444;8.334;2023-09-18T04:22:34;5.95;;;1.95;;
29688;SDS011;16600;47.444;8.334;2023-09-18T04:25:00;5.18;;;2.10;;
29688;SDS011;16600;47.444;8.334;2023-09-18T04:27:26;10.35;;;2.20;;
29688;SDS011;16600;47.444;8.334;2023-09-18T04:29:51;4.60;;;2.25;;
29688;SDS011;16600;47.444;8.334;2023-09-18T04:32:17;11.02;;;3.03;;
29688;SDS011;16600;47.444;8.334;2023-09-18T04:34:42;8.70;;;3.45;;
29688;SDS011;16600;47.444;8.334;2023-09-18T04:37:08;6.72;;;3.20;;
29688;SDS011;16600;47.444;8.334;2023-09-18T04:39:34;9.52;;;3.13;;
29688;SDS011;16600;47.444;8.334;2023-09-18T04:42:02;9.27;;;3.33;;
29688;SDS011;16600;47.444;8.334;2023-09-18T04:44:29;5.40;;;3.75;;
29688;SDS011;16600;47.444;8.334;2023-09-18T04:46:55;5.93;;;2.88;;
29688;SDS011;16600;47.444;8.334;2023-09-18T04:49:23;6.10;;;3.17;;
29688;SDS011;16600;47.444;8.334;2023-09-18T04:51:49;12.80;;;3.47;;
29688;SDS011;16600;47.444;8.334;2023-09-18T04:54:15;15.43;;;3.95;;
29688;SDS011;16600;47.444;8.334;2023-09-18T04:56:41;5.13;;;2.63;;
29688;SDS011;16600;47.444;8.334;2023-09-18T04:59:07;5.15;;;2.47;;
29688;SDS011;16600;47.444;8.334;2023-09-18T05:01:32;8.73;;;3.60;;
29688;SDS011;16600;47.444;8.334;2023-09-18T05:03:58;4.78;;;2.85;;
29688;SDS011;16600;47.444;8.334;2023-09-18T05:06:24;3.72;;;2.30;;
29688;SDS011;16600;47.444;8.334;2023-09-18T05:08:49;4.82;;;3.15;;
29688;SDS011;16600;47.444;8.334;2023-09-18T05:11:15;4.22;;;1.77;;
29688;SDS011;16600;47.444;8.334;2023-09-18T05:13:41;3.22;;;1.73;;
29688;SDS011;16600;47.444;8.334;2023-09-18T05:16:07;3.08;;;1.50;;
29688;SDS011;16600;47.444;8.334;2023-09-18T05:18:32;6.78;;;2.60;;
29688;SDS011;16600;47.444;8.334;2023-09-18T05:20:58;5.93;;;2.75;;
29688;SDS011;16600;47.444;8.334;2023-09-18T05:23:24;7.28;;;3.38;;
29688;SDS011;16600;47.444;8.334;2023-09-18T05:25:49;9.73;;;3.03;;
29688;SDS011;16600;47.444;8.334;2023-09-18T05:28:15;4.43;;;2.20;;
29688;SDS011;16600;47.444;8.334;2023-09-18T05:30:40;2.80;;;1.67;;
29688;SDS011;16600;47.444;8.334;2023-09-18T05:33:06;8.50;;;3.92;;
29688;SDS011;16600;47.444;8.334;2023-09-18T05:35:33;6.45;;;3.28;;
29688;SDS011;16600;47.444;8.334;2023-09-18T05:37:59;5.97;;;2.95;;
29688;SDS011;16600;47.444;8.334;2023-09-18T05:40:25;10.25;;;2.72;;
29688;SDS011;16600;47.444;8.334;2023-09-18T05:42:55;7.88;;;4.05;;
29688;SDS011;16600;47.444;8.334;2023-09-18T05:45:21;9.23;;;3.30;;
29688;SDS011;16600;47.444;8.334;2023-09-18T05:47:50;8.20;;;3.35;;
29688;SDS011;16600;47.444;8.334;2023-09-18T05:50:17;9.23;;;3.42;;
29688;SDS011;16600;47.444;8.334;2023-09-18T05:52:44;10.55;;;3.53;;
29688;SDS011;16600;47.444;8.334;2023-09-18T05:55:13;9.80;;;2.63;;
29688;SDS011;16600;47.444;8.334;2023-09-18T05:57:39;10.00;;;2.85;;
29688;SDS011;16600;47.444;8.334;2023-09-18T06:00:05;7.85;;;3.15;;
29688;SDS011;16600;47.444;8.334;2023-09-18T06:02:39;6.47;;;3.78;;
29688;SDS011;16600;47.444;8.334;2023-09-18T06:05:05;4.15;;;2.40;;
29688;SDS011;16600;47.444;8.334;2023-09-18T06:07:32;5.88;;;2.80;;
29688;SDS011;16600;47.444;8.334;2023-09-18T06:09:58;11.00;;;3.47;;
29688;SDS011;16600;47.444;8.334;2023-09-18T06:12:24;5.72;;;2.50;;
29688;SDS011;16600;47.444;8.334;2023-09-18T06:14:50;15.80;;;2.95;;
29688;SDS011;16600;47.444;8.334;2023-09-18T06:17:15;11.63;;;2.92;;
29688;SDS011;16600;47.444;8.334;2023-09-18T06:19:42;13.80;;;3.30;;
29688;SDS011;16600;47.444;8.334;2023-09-18T06:22:07;5.10;;;2.38;;
29688;SDS011;16600;47.444;8.334;2023-09-18T06:24:34;9.40;;;2.58;;
29688;SDS011;16600;47.444;8.334;2023-09-18T06:26:59;15.93;;;2.60;;
29688;SDS011;16600;47.444;8.334;2023-09-18T06:29:25;4.25;;;2.15;;
29688;SDS011;16600;47.444;8.334;2023-09-18T06:31:50;5.45;;;2.70;;
29688;SDS011;16600;47.444;8.334;2023-09-18T06:34:17;7.90;;;2.75;;
29688;SDS011;16600;47.444;8.334;2023-09-18T06:36:43;10.77;;;3.60;;
29688;SDS011;16600;47.444;8.334;2023-09-18T06:39:08;12.13;;;2.97;;
29688;SDS011;16600;47.444;8.334;2023-09-18T06:41:34;7.07;;;2.83;;
29688;SDS011;16600;47.444;8.334;2023-09-18T06:44:00;6.88;;;2.60;;
29688;SDS011;16600;47.444;8.334;2023-09-18T06:46:31;6.68;;;2.70;;
29688;SDS011;16600;47.444;8.334;2023-09-18T06:48:56;13.15;;;3.17;;
29688;SDS011;16600;47.444;8.334;2023-09-18T06:51:22;7.78;;;3.10;;
29688;SDS011;16600;47.444;8.334;2023-09-18T06:53:51;30.30;;;4.30;;
29688;SDS011;16600;47.444;8.334;2023-09-18T06:56:18;14.77;;;4.63;;
29688;SDS011;16600;47.444;8.334;2023-09-18T06:58:47;18.95;;;4.97;;
29688;SDS011;16600;47.444;8.334;2023-09-18T07:01:13;64.72;;;9.10;;
29688;SDS011;16600;47.444;8.334;2023-09-18T07:03:45;26.83;;;6.95;;
29688;SDS011;16600;47.444;8.334;2023-09-18T07:06:13;10.82;;;5.65;;
29688;SDS011;16600;47.444;8.334;2023-09-18T07:08:40;9.18;;;4.95;;
29688;SDS011;16600;47.444;8.334;2023-09-18T07:11:09;12.25;;;3.85;;
29688;SDS011;16600;47.444;8.334;2023-09-18T07:13:37;7.30;;;3.55;;
29688;SDS011;16600;47.444;8.334;2023-09-18T07:16:03;7.85;;;3.60;;
29688;SDS011;16600;47.444;8.334;2023-09-18T07:18:29;11.40;;;5.65;;
29688;SDS011;16600;47.444;8.334;2023-09-18T07:20:55;14.13;;;5.93;;
29688;SDS011;16600;47.444;8.334;2023-09-18T07:23:21;11.52;;;5.30;;
29688;SDS011;16600;47.444;8.334;2023-09-18T07:25:48;5.05;;;2.90;;
29688;SDS011;16600;47.444;8.334;2023-09-18T07:28:14;11.80;;;5.53;;
29688;SDS011;16600;47.444;8.334;2023-09-18T07:30:43;13.43;;;6.10;;
29688;SDS011;16600;47.444;8.334;2023-09-18T07:33:09;10.02;;;5.63;;
29688;SDS011;16600;47.444;8.334;2023-09-18T07:35:37;12.20;;;6.05;;
29688;SDS011;16600;47.444;8.334;2023-09-18T07:38:04;11.98;;;6.78;;
29688;SDS011;16600;47.444;8.334;2023-09-18T07:40:33;16.50;;;5.85;;
29688;SDS011;16600;47.444;8.334;2023-09-18T07:42:59;13.38;;;6.63;;
29688;SDS011;16600;47.444;8.334;2023-09-18T07:45:25;13.63;;;6.22;;
29688;SDS011;16600;47.444;8.334;2023-09-18T07:47:52;9.88;;;6.90;;
29688;SDS011;16600;47.444;8.334;2023-09-18T07:50:18;13.85;;;6.63;;
29688;SDS011;16600;47.444;8.334;2023-09-18T07:52:47;15.70;;;7.43;;
29688;SDS011;16600;47.444;8.334;2023-09-18T07:55:13;7.60;;;6.20;;
29688;SDS011;16600;47.444;8.334;2023-09-18T07:57:40;10.95;;;5.95;;
29688;SDS011;16600;47.444;8.334;2023-09-18T08:00:06;9.63;;;4.97;;
29688;SDS011;16600;47.444;8.334;2023-09-18T08:02:39;13.27;;;7.05;;
29688;SDS011;16600;47.444;8.334;2023-09-18T08:05:05;16.52;;;5.32;;
29688;SDS011;16600;47.444;8.334;2023-09-18T08:07:34;12.57;;;8.40;;
29688;SDS011;16600;47.444;8.334;2023-09-18T08:10:04;6.15;;;4.50;;
29688;SDS011;16600;47.444;8.334;2023-09-18T08:12:32;9.27;;;3.90;;
29688;SDS011;16600;47.444;8.334;2023-09-18T08:14:58;18.92;;;7.88;;
29688;SDS011;16600;47.444;8.334;2023-09-18T08:17:24;11.88;;;8.02;;
29688;SDS011;16600;47.444;8.334;2023-09-18T08:19:51;12.18;;;5.22;;
29688;SDS011;16600;47.444;8.334;2023-09-18T08:22:20;15.27;;;6.47;;
29688;SDS011;16600;47.444;8.334;2023-09-18T08:24:47;7.80;;;4.05;;
29688;SDS011;16600;47.444;8.334;2023-09-18T08:27:15;8.40;;;3.63;;
29688;SDS011;16600;47.444;8.334;2023-09-18T08:29:44;7.30;;;3.85;;
29688;SDS011;16600;47.444;8.334;2023-09-18T08:32:13;6.53;;;3.17;;
29688;SDS011;16600;47.444;8.334;2023-09-18T08:34:39;8.65;;;3.92;;
29688;SDS011;16600;47.444;8.334;2023-09-18T08:37:05;6.18;;;3.38;;
29688;SDS011;16600;47.444;8.334;2023-09-18T08:39:32;9.25;;;4.13;;
29688;SDS011;16600;47.444;8.334;2023-09-18T08:41:59;11.65;;;5.07;;
29688;SDS011;16600;47.444;8.334;2023-09-18T08:44:28;8.57;;;4.45;;
29688;SDS011;16600;47.444;8.334;2023-09-18T08:46:58;8.85;;;3.92;;
29688;SDS011;16600;47.444;8.334;2023-09-18T08:49:25;9.82;;;3.05;;
29688;SDS011;16600;47.444;8.334;2023-09-18T08:51:53;5.15;;;2.95;;
29688;SDS011;16600;47.444;8.334;2023-09-18T08:54:21;5.75;;;2.42;;
29688;SDS011;16600;47.444;8.334;2023-09-18T08:56:47;7.88;;;3.53;;
29688;SDS011;16600;47.444;8.334;2023-09-18T08:59:13;3.67;;;2.47;;
29688;SDS011;16600;47.444;8.334;2023-09-18T09:01:39;3.83;;;2.58;;
29688;SDS011;16600;47.444;8.334;2023-09-18T09:04:05;6.13;;;2.30;;
29688;SDS011;16600;47.444;8.334;2023-09-18T09:06:32;4.38;;;2.30;;
29688;SDS011;16600;47.444;8.334;2023-09-18T09:08:57;3.83;;;2.30;;
29688;SDS011;16600;47.444;8.334;2023-09-18T09:11:23;3.10;;;1.60;;
29688;SDS011;16600;47.444;8.334;2023-09-18T09:13:59;4.05;;;1.90;;
29688;SDS011;16600;47.444;8.334;2023-09-18T09:16:33;4.57;;;2.47;;
29688;SDS011;16600;47.444;8.334;2023-09-18T09:19:00;5.88;;;1.90;;
29688;SDS011;16600;47.444;8.334;2023-09-18T09:21:37;4.07;;;1.92;;
29688;SDS011;16600;47.444;8.334;2023-09-18T09:24:03;2.00;;;1.52;;
29688;SDS011;16600;47.444;8.334;2023-09-18T09:26:29;5.78;;;2.10;;
29688;SDS011;16600;47.444;8.334;2023-09-18T09:28:55;5.88;;;1.80;;
29688;SDS011;16600;47.444;8.334;2023-09-18T09:33:51;4.85;;;1.25;;
29688;SDS011;16600;47.444;8.334;2023-09-18T09:36:20;3.15;;;1.70;;
29688;SDS011;16600;47.444;8.334;2023-09-18T09:38:59;2.28;;;1.17;;
29688;SDS011;16600;47.444;8.334;2023-09-18T09:41:25;1.98;;;1.15;;
29688;SDS011;16600;47.444;8.334;2023-09-18T09:43:57;5.47;;;1.88;;
29688;SDS011;16600;47.444;8.334;2023-09-18T09:46:24;8.40;;;2.03;;
29688;SDS011;16600;47.444;8.334;2023-09-18T09:49:00;5.63;;;1.35;;
29688;SDS011;16600;47.444;8.334;2023-09-18T09:51:27;14.23;;;1.75;;
29688;SDS011;16600;47.444;8.334;2023-09-18T09:53:53;2.75;;;1.40;;
29688;SDS011;16600;47.444;8.334;2023-09-18T09:56:22;2.03;;;1.02;;
29688;SDS011;16600;47.444;8.334;2023-09-18T09:59:04;3.25;;;1.45;;
29688;SDS011;16600;47.444;8.334;2023-09-18T10:03:03;3.22;;;1.20;;
29688;SDS011;16600;47.444;8.334;2023-09-18T10:05:30;2.33;;;1.20;;
29688;SDS011;16600;47.444;8.334;2023-09-18T10:07:57;2.88;;;1.60;;
29688;SDS011;16600;47.444;8.334;2023-09-18T10:10:30;2.40;;;1.40;;
29688;SDS011;16600;47.444;8.334;2023-09-18T10:13:00;1.63;;;1.00;;
29688;SDS011;16600;47.444;8.334;2023-09-18T10:15:26;3.47;;;1.35;;
29688;SDS011;16600;47.444;8.334;2023-09-18T10:17:53;3.25;;;1.48;;
29688;SDS011;16600;47.444;8.334;2023-09-18T10:20:24;2.22;;;1.10;;
29688;SDS011;16600;47.444;8.334;2023-09-18T10:22:56;2.35;;;1.48;;
29688;SDS011;16600;47.444;8.334;2023-09-18T10:25:26;1.92;;;1.48;;
29688;SDS011;16600;47.444;8.334;2023-09-18T10:27:54;4.18;;;1.42;;
29688;SDS011;16600;47.444;8.334;2023-09-18T10:30:27;3.00;;;1.35;;
29688;SDS011;16600;47.444;8.334;2023-09-18T10:32:55;3.25;;;1.10;;
29688;SDS011;16600;47.444;8.334;2023-09-18T10:35:21;2.42;;;1.63;;
29688;SDS011;16600;47.444;8.334;2023-09-18T10:37:49;3.13;;;1.58;;
29688;SDS011;16600;47.444;8.334;2023-09-18T10:40:19;7.13;;;1.77;;
29688;SDS011;16600;47.444;8.334;2023-09-18T10:42:45;3.67;;;1.90;;
29688;SDS011;16600;47.444;8.334;2023-09-18T10:45:13;3.42;;;1.63;;
29688;SDS011;16600;47.444;8.334;2023-09-18T10:47:44;6.32;;;1.50;;
29688;SDS011;16600;47.444;8.334;2023-09-18T10:50:22;2.90;;;1.60;;
29688;SDS011;16600;47.444;8.334;2023-09-18T10:52:49;3.10;;;1.52;;
29688;SDS011;16600;47.444;8.334;2023-09-18T10:55:17;3.53;;;1.15;;
29688;SDS011;16600;47.444;8.334;2023-09-18T10:57:56;2.95;;;1.70;;
29688;SDS011;16600;47.444;8.334;2023-09-18T11:00:25;2.00;;;1.15;;
29688;SDS011;16600;47.444;8.334;2023-09-18T11:02:51;1.83;;;1.52;;
29688;SDS011;16600;47.444;8.334;2023-09-18T11:05:30;2.22;;;1.25;;
29688;SDS011;16600;47.444;8.334;2023-09-18T11:10:54;4.22;;;1.65;;
29688;SDS011;16600;47.444;8.334;2023-09-18T11:13:29;4.45;;;1.33;;
29688;SDS011;16600;47.444;8.334;2023-09-18T11:16:02;3.33;;;1.20;;
29688;SDS011;16600;47.444;8.334;2023-09-18T11:18:34;1.10;;;0.70;;
29688;SDS011;16600;47.444;8.334;2023-09-18T11:21:08;4.18;;;1.50;;
29688;SDS011;16600;47.444;8.334;2023-09-18T11:23:35;2.47;;;1.30;;
29688;SDS011;16600;47.444;8.334;2023-09-18T11:26:09;2.45;;;1.15;;
29688;SDS011;16600;47.444;8.334;2023-09-18T11:28:36;4.03;;;1.77;;
29688;SDS011;16600;47.444;8.334;2023-09-18T11:31:07;3.08;;;1.27;;
29688;SDS011;16600;47.444;8.334;2023-09-18T11:33:37;2.78;;;1.30;;
29688;SDS011;16600;47.444;8.334;2023-09-18T16:03:22;7.43;;;1.95;;
29688;SDS011;16600;47.444;8.334;2023-09-18T16:05:49;5.72;;;1.63;;
29688;SDS011;16600;47.444;8.334;2023-09-18T16:08:19;7.65;;;1.55;;
29688;SDS011;16600;47.444;8.334;2023-09-18T16:10:45;3.10;;;1.40;;
29688;SDS011;16600;47.444;8.334;2023-09-18T16:13:11;4.90;;;1.40;;
29688;SDS011;16600;47.444;8.334;2023-09-18T16:15:37;3.13;;;1.85;;
29688;SDS011;16600;47.444;8.334;2023-09-18T16:18:03;6.07;;;1.65;;
29688;SDS011;16600;47.444;8.334;2023-09-18T16:20:31;2.20;;;1.30;;
29688;SDS011;16600;47.444;8.334;2023-09-18T16:22:58;1.98;;;1.00;;
29688;SDS011;16600;47.444;8.334;2023-09-18T16:25:24;2.10;;;1.42;;
29688;SDS011;16600;47.444;8.334;2023-09-18T16:27:50;2.15;;;1.48;;
29688;SDS011;16600;47.444;8.334;2023-09-18T16:30:19;1.98;;;1.20;;
29688;SDS011;16600;47.444;8.334;2023-09-18T16:32:46;1.38;;;1.27;;
29688;SDS011;16600;47.444;8.334;2023-09-18T16:35:12;1.75;;;1.40;;
29688;SDS011;16600;47.444;8.334;2023-09-18T16:37:38;1.42;;;1.30;;
29688;SDS011;16600;47.444;8.334;2023-09-18T16:40:05;2.70;;;1.38;;
29688;SDS011;16600;47.444;8.334;2023-09-18T16:42:34;7.85;;;1.52;;
29688;SDS011;16600;47.444;8.334;2023-09-18T16:45:03;2.17;;;1.20;;
29688;SDS011;16600;47.444;8.334;2023-09-18T16:47:33;1.52;;;1.13;;
29688;SDS011;16600;47.444;8.334;2023-09-18T16:50:01;4.70;;;1.38;;
29688;SDS011;16600;47.444;8.334;2023-09-18T16:52:26;4.70;;;1.42;;
29688;SDS011;16600;47.444;8.334;2023-09-18T16:54:53;2.53;;;1.20;;
29688;SDS011;16600;47.444;8.334;2023-09-18T16:57:24;6.65;;;1.90;;
29688;SDS011;16600;47.444;8.334;2023-09-18T16:59:57;4.22;;;1.45;;
29688;SDS011;16600;47.444;8.334;2023-09-18T17:02:35;1.85;;;1.10;;
29688;SDS011;16600;47.444;8.334;2023-09-18T17:05:01;2.67;;;1.40;;
29688;SDS011;16600;47.444;8.334;2023-09-18T17:07:27;1.15;;;1.00;;
29688;SDS011;16600;47.444;8.334;2023-09-18T17:09:55;2.35;;;1.00;;
29688;SDS011;16600;47.444;8.334;2023-09-18T17:12:24;1.80;;;1.10;;
29688;SDS011;16600;47.444;8.334;2023-09-18T17:14:51;1.45;;;1.13;;
29688;SDS011;16600;47.444;8.334;2023-09-18T17:17:17;1.30;;;1.00;;
29688;SDS011;16600;47.444;8.334;2023-09-18T17:19:44;1.30;;;0.93;;
29688;SDS011;16600;47.444;8.334;2023-09-18T17:22:10;1.02;;;0.80;;
29688;SDS011;16600;47.444;8.334;2023-09-18T17:24:36;3.45;;;1.30;;
29688;SDS011;16600;47.444;8.334;2023-09-18T17:27:04;1.25;;;1.13;;
29688;SDS011;16600;47.444;8.334;2023-09-18T17:29:31;1.85;;;1.00;;
29688;SDS011;16600;47.444;8.334;2023-09-18T17:31:57;4.90;;;1.30;;
29688;SDS011;16600;47.444;8.334;2023-09-18T17:34:23;2.85;;;1.67;;
29688;SDS011;16600;47.444;8.334;2023-09-18T17:36:49;2.28;;;1.38;;
29688;SDS011;16600;47.444;8.334;2023-09-18T17:39:14;6.60;;;1.10;;
29688;SDS011;16600;47.444;8.334;2023-09-18T17:41:40;8.52;;;1.88;;
29688;SDS011;16600;47.444;8.334;2023-09-18T17:44:06;2.05;;;1.60;;
29688;SDS011;16600;47.444;8.334;2023-09-18T17:46:31;6.60;;;1.48;;
29688;SDS011;16600;47.444;8.334;2023-09-18T17:48:58;3.95;;;1.85;;
29688;SDS011;16600;47.444;8.334;2023-09-18T17:51:23;1.95;;;1.40;;
29688;SDS011;16600;47.444;8.334;2023-09-18T17:53:49;5.10;;;2.88;;
29688;SDS011;16600;47.444;8.334;2023-09-18T17:56:15;3.63;;;1.63;;
29688;SDS011;16600;47.444;8.334;2023-09-18T17:58:41;2.45;;;1.60;;
29688;SDS011;16600;47.444;8.334;2023-09-18T18:01:06;3.00;;;1.63;;
29688;SDS011;16600;47.444;8.334;2023-09-18T18:03:33;4.47;;;1.40;;
29688;SDS011;16600;47.444;8.334;2023-09-18T18:05:58;1.67;;;1.40;;
29688;SDS011;16600;47.444;8.334;2023-09-18T18:08:24;4.70;;;1.65;;
29688;SDS011;16600;47.444;8.334;2023-09-18T18:10:50;2.20;;;1.23;;
29688;SDS011;16600;47.444;8.334;2023-09-18T18:13:15;2.35;;;1.42;;
29688;SDS011;16600;47.444;8.334;2023-09-18T18:15:41;2.85;;;1.75;;
29688;SDS011;16600;47.444;8.334;2023-09-18T18:18:08;2.22;;;1.70;;
29688;SDS011;16600;47.444;8.334;2023-09-18T18:20:36;5.90;;;2.50;;
29688;SDS011;16600;47.444;8.334;2023-09-18T18:23:02;4.43;;;2.05;;
29688;SDS011;16600;47.444;8.334;2023-09-18T18:25:30;3.33;;;1.88;;
29688;SDS011;16600;47.444;8.334;2023-09-18T18:27:56;8.68;;;3.78;;
29688;SDS011;16600;47.444;8.334;2023-09-18T18:30:22;7.90;;;5.40;;
29688;SDS011;16600;47.444;8.334;2023-09-18T18:32:47;1.23;;;1.13;;
29688;SDS011;16600;47.444;8.334;2023-09-18T18:35:13;5.97;;;2.78;;
29688;SDS011;16600;47.444;8.334;2023-09-18T18:37:43;1.95;;;1.75;;
29688;SDS011;16600;47.444;8.334;2023-09-18T18:40:09;3.20;;;1.42;;
29688;SDS011;16600;47.444;8.334;2023-09-18T18:42:38;2.22;;;1.90;;
29688;SDS011;16600;47.444;8.334;2023-09-18T18:45:04;2.78;;;1.40;;
29688;SDS011;16600;47.444;8.334;2023-09-18T18:47:31;3.22;;;1.85;;
29688;SDS011;16600;47.444;8.334;2023-09-18T18:49:56;2.63;;;1.80;;
29688;SDS011;16600;47.444;8.334;2023-09-18T18:52:22;4.07;;;1.80;;
29688;SDS011;16600;47.444;8.334;2023-09-18T18:54:48;3.25;;;1.85;;
29688;SDS011;16600;47.444;8.334;2023-09-18T18:57:16;1.58;;;1.38;;
29688;SDS011;16600;47.444;8.334;2023-09-18T18:59:41;5.20;;;1.85;;
29688;SDS011;16600;47.444;8.334;2023-09-18T19:02:07;2.78;;;1.60;;
29688;SDS011;16600;47.444;8.334;2023-09-18T19:04:33;4.15;;;2.10;;
29688;SDS011;16600;47.444;8.334;2023-09-18T19:07:00;1.92;;;1.40;;
29688;SDS011;16600;47.444;8.334;2023-09-18T19:09:25;3.42;;;1.92;;
29688;SDS011;16600;47.444;8.334;2023-09-18T19:11:52;3.33;;;2.00;;
29688;SDS011;16600;47.444;8.334;2023-09-18T19:14:17;8.43;;;2.40;;
29688;SDS011;16600;47.444;8.334;2023-09-18T19:16:43;4.93;;;2.42;;
29688;SDS011;16600;47.444;8.334;2023-09-18T19:19:08;5.90;;;2.25;;
29688;SDS011;16600;47.444;8.334;2023-09-18T19:21:34;3.95;;;2.28;;
29688;SDS011;16600;47.444;8.334;2023-09-18T19:23:59;4.68;;;2.50;;
29688;SDS011;16600;47.444;8.334;2023-09-18T19:26:25;3.97;;;1.98;;